createdAt,value
2018-06-04T00:00:14.009Z,21.95
2018-06-04T00:02:43.044Z,21.90
2018-06-04T00:05:12.089Z,21.88
2018-06-04T00:07:41.102Z,21.88
2018-06-04T00:10:10.117Z,21.88
2018-06-04T00:12:39.125Z,21.89
2018-06-04T00:15:08.124Z,21.91
2018-06-04T00:17:37.123Z,21.86
2018-06-04T00:20:06.128Z,21.90
2018-06-04T00:22:35.074Z,22.00
2018-06-04T00:25:04.133Z,21.98
2018-06-04T00:27:33.085Z,21.95
2018-06-04T00:30:02.064Z,21.93
2018-06-04T00:32:31.069Z,21.89
2018-06-04T00:35:00.024Z,21.86
2018-06-04T00:37:28.964Z,21.84
2018-06-04T00:39:57.972Z,21.81
2018-06-04T00:42:26.933Z,21.77
2018-06-04T00:44:55.868Z,21.73
2018-06-04T00:47:24.972Z,21.66
2018-06-04T00:49:53.965Z,21.62
2018-06-04T00:52:22.899Z,21.60
2018-06-04T00:54:51.835Z,21.53
2018-06-04T00:57:20.788Z,21.46
2018-06-04T00:59:49.717Z,21.48
2018-06-04T01:02:18.781Z,21.44
2018-06-04T01:04:48.645Z,21.42
2018-06-04T01:07:17.692Z,21.40
2018-06-04T01:09:46.648Z,21.39
2018-06-04T01:12:15.581Z,21.38
2018-06-04T01:14:44.528Z,21.35
2018-06-04T01:17:13.517Z,21.33
2018-06-04T01:19:42.584Z,21.29
2018-06-04T01:22:11.802Z,21.33
2018-06-04T01:24:40.856Z,21.37
2018-06-04T01:27:09.853Z,21.37
2018-06-04T01:29:38.787Z,21.35
2018-06-04T01:32:07.777Z,21.39
2018-06-04T01:34:36.772Z,21.40
2018-06-04T01:37:05.712Z,21.35
2018-06-04T01:39:34.644Z,21.29
2018-06-04T01:42:03.648Z,21.30
2018-06-04T01:44:32.633Z,21.29
2018-06-04T01:47:01.597Z,21.16
2018-06-04T01:49:30.536Z,21.11
2018-06-04T01:51:59.476Z,21.09
2018-06-04T01:54:28.484Z,21.14
2018-06-04T01:56:57.417Z,21.08
2018-06-04T01:59:26.523Z,21.02
2018-06-04T02:01:55.472Z,20.97
2018-06-04T02:04:24.465Z,20.94
2018-06-04T02:06:53.400Z,20.88
2018-06-04T02:09:22.405Z,20.83
2018-06-04T02:11:51.417Z,20.72
2018-06-04T02:14:20.404Z,20.66
2018-06-04T02:16:49.408Z,20.63
2018-06-04T02:19:18.392Z,20.65
2018-06-04T02:21:47.341Z,20.68
2018-06-04T02:24:16.352Z,20.69
2018-06-04T02:26:46.013Z,20.69
2018-06-04T02:29:15.037Z,20.68
2018-06-04T02:31:44.030Z,20.69
2018-06-04T02:34:13.085Z,20.72
2018-06-04T02:36:42.081Z,20.74
2018-06-04T02:39:11.124Z,20.73
2018-06-04T02:41:40.149Z,20.74
2018-06-04T02:44:09.147Z,20.72
2018-06-04T02:46:38.217Z,20.76
2018-06-04T02:49:07.165Z,20.88
2018-06-04T02:51:36.201Z,20.90
2018-06-04T02:54:05.261Z,20.96
2018-06-04T02:56:34.200Z,20.99
2018-06-04T02:59:03.144Z,21.05
2018-06-04T03:01:32.108Z,21.10
2018-06-04T03:04:01.100Z,21.17
2018-06-04T03:06:30.036Z,21.18
2018-06-04T03:08:59.036Z,21.22
2018-06-04T03:11:27.964Z,21.32
2018-06-04T03:13:57.050Z,21.36
2018-06-04T03:16:26.170Z,21.37
2018-06-04T03:18:55.169Z,21.41
2018-06-04T03:21:24.172Z,21.45
2018-06-04T03:23:53.161Z,21.47
2018-06-04T03:26:22.121Z,21.46
2018-06-04T03:28:51.160Z,21.54
2018-06-04T03:31:20.101Z,21.61
2018-06-04T03:33:49.073Z,21.70
2018-06-04T03:36:18.008Z,21.83
2018-06-04T03:38:47.085Z,21.95
2018-06-04T03:41:16.037Z,21.83
2018-06-04T03:43:45.030Z,22.20
2018-06-04T03:46:13.992Z,22.38
2018-06-04T03:48:42.960Z,23.28
2018-06-04T03:51:11.966Z,23.54
2018-06-04T03:53:41.040Z,23.68
2018-06-04T03:56:10.102Z,24.05
2018-06-04T03:58:39.125Z,24.40
2018-06-04T04:01:08.333Z,24.76
2018-06-04T04:03:37.381Z,25.85
2018-06-04T04:06:06.450Z,27.60
2018-06-04T04:08:35.401Z,28.99
2018-06-04T04:11:04.389Z,29.84
2018-06-04T04:13:33.389Z,30.68
2018-06-04T04:16:02.365Z,31.46
2018-06-04T04:18:31.296Z,32.55
2018-06-04T04:21:00.236Z,32.76
2018-06-04T04:23:29.167Z,32.61
2018-06-04T04:25:58.167Z,33.21
2018-06-04T04:28:27.161Z,33.39
2018-06-04T04:30:56.213Z,33.87
2018-06-04T04:33:25.229Z,34.17
2018-06-04T04:35:54.318Z,34.28
2018-06-04T04:38:23.520Z,34.84
2018-06-04T04:40:52.568Z,35.73
2018-06-04T04:43:21.572Z,35.99
2018-06-04T04:45:50.512Z,36.16
2018-06-04T04:48:19.581Z,35.36
2018-06-04T04:50:48.557Z,34.62
2018-06-04T04:53:17.492Z,35.18
2018-06-04T04:55:46.545Z,36.73
2018-06-04T04:58:15.502Z,37.52
2018-06-04T05:00:44.444Z,38.48
2018-06-04T05:03:13.488Z,39.13
2018-06-04T05:05:42.484Z,39.24
2018-06-04T05:08:11.517Z,39.12
2018-06-04T05:10:40.509Z,39.33
2018-06-04T05:13:09.448Z,39.32
2018-06-04T05:15:38.485Z,38.77
2018-06-04T05:18:07.504Z,38.65
2018-06-04T05:20:36.513Z,38.91
2018-06-04T05:23:05.512Z,38.65
2018-06-04T05:25:34.557Z,39.28
2018-06-04T05:28:03.659Z,39.40
2018-06-04T05:30:32.656Z,39.61
2018-06-04T05:33:01.600Z,39.94
2018-06-04T05:35:30.601Z,39.90
2018-06-04T05:37:59.610Z,40.36
2018-06-04T05:40:28.665Z,40.79
2018-06-04T05:42:57.583Z,40.70
2018-06-04T05:45:26.528Z,40.22
2018-06-04T05:47:55.566Z,40.15
2018-06-04T05:50:24.636Z,40.10
2018-06-04T05:52:53.751Z,38.84
2018-06-04T05:55:22.760Z,38.33
2018-06-04T05:57:51.776Z,38.29
2018-06-04T06:00:20.786Z,38.49
2018-06-04T06:02:49.716Z,38.49
2018-06-04T06:05:18.673Z,38.98
2018-06-04T06:07:47.646Z,38.38
2018-06-04T06:10:16.660Z,38.05
2018-06-04T06:12:45.646Z,38.72
2018-06-04T06:15:14.608Z,39.55
2018-06-04T06:17:43.676Z,39.38
2018-06-04T06:20:12.608Z,39.66
2018-06-04T06:22:41.608Z,40.08
2018-06-04T06:25:10.614Z,39.70
2018-06-04T06:27:39.621Z,39.74
2018-06-04T06:30:08.666Z,39.83
2018-06-04T06:32:37.858Z,39.37
2018-06-04T06:35:06.984Z,39.07
2018-06-04T06:37:36.013Z,38.71
2018-06-04T06:40:05.087Z,38.56
2018-06-04T06:42:34.073Z,38.11
2018-06-04T06:45:03.018Z,38.23
2018-06-04T06:47:32.017Z,38.73
2018-06-04T06:50:00.966Z,39.00
2018-06-04T06:52:29.925Z,38.77
2018-06-04T06:54:58.924Z,38.93
2018-06-04T06:57:27.950Z,38.15
2018-06-04T06:59:56.936Z,37.14
2018-06-04T07:02:25.990Z,37.66
2018-06-04T07:04:54.931Z,38.27
2018-06-04T07:07:23.873Z,37.31
2018-06-04T07:09:52.812Z,35.74
2018-06-04T07:12:21.821Z,35.22
2018-06-04T07:14:50.868Z,35.19
2018-06-04T07:17:19.837Z,35.80
2018-06-04T07:19:48.764Z,36.35
2018-06-04T07:22:17.812Z,36.34
2018-06-04T07:24:46.805Z,36.39
2018-06-04T07:27:15.868Z,36.10
2018-06-04T07:29:44.828Z,35.85
2018-06-04T07:32:13.822Z,35.94
2018-06-04T07:34:42.816Z,36.20
2018-06-04T07:37:11.765Z,36.39
2018-06-04T07:39:40.709Z,37.11
2018-06-04T07:42:09.694Z,37.23
2018-06-04T07:44:38.749Z,36.89
2018-06-04T07:47:07.696Z,36.18
2018-06-04T07:49:36.644Z,35.48
2018-06-04T07:52:05.608Z,34.21
2018-06-04T07:54:34.677Z,33.59
2018-06-04T07:57:03.628Z,33.33
2018-06-04T07:59:32.548Z,32.92
2018-06-04T08:02:01.541Z,32.70
2018-06-04T08:04:30.545Z,32.59
2018-06-04T08:06:59.753Z,32.89
2018-06-04T08:09:28.757Z,33.22
2018-06-04T08:11:57.777Z,32.73
2018-06-04T08:14:26.813Z,32.41
2018-06-04T08:16:55.809Z,32.44
2018-06-04T08:19:24.800Z,32.57
2018-06-04T08:21:53.786Z,32.34
2018-06-04T08:24:22.785Z,32.27
2018-06-04T08:26:51.728Z,32.09
2018-06-04T08:29:20.764Z,32.16
2018-06-04T08:31:49.714Z,32.19
2018-06-04T08:34:18.711Z,32.23
2018-06-04T08:36:47.723Z,31.95
2018-06-04T08:39:16.737Z,31.94
2018-06-04T08:41:45.760Z,32.26
2018-06-04T08:44:14.779Z,32.04
2018-06-04T08:46:43.949Z,31.75
2018-06-04T08:49:12.929Z,31.52
2018-06-04T08:51:41.921Z,31.42
2018-06-04T08:54:11.188Z,31.54
2018-06-04T08:56:40.128Z,31.68
2018-06-04T08:59:09.057Z,32.15
2018-06-04T09:01:38.058Z,32.55
2018-06-04T09:04:07.101Z,32.55
2018-06-04T09:06:36.149Z,32.65
2018-06-04T09:09:06.413Z,33.04
2018-06-04T09:11:35.468Z,33.20
2018-06-04T09:14:04.498Z,33.35
2018-06-04T09:16:33.559Z,33.17
2018-06-04T09:19:02.641Z,33.14
2018-06-04T09:21:31.641Z,33.32
2018-06-04T09:24:00.592Z,33.29
2018-06-04T09:26:29.712Z,32.86
2018-06-04T09:28:58.717Z,32.68
2018-06-04T09:31:27.640Z,32.78
2018-06-04T09:33:56.704Z,32.85
2018-06-04T09:36:25.632Z,33.23
2018-06-04T09:38:54.655Z,33.21
2018-06-04T09:41:23.641Z,33.30
2018-06-04T09:43:52.578Z,33.30
2018-06-04T09:46:21.517Z,33.24
2018-06-04T09:48:50.508Z,32.96
2018-06-04T09:51:19.447Z,33.00
2018-06-04T09:53:48.396Z,33.19
2018-06-04T09:56:18.002Z,33.95
2018-06-04T09:58:47.018Z,34.77
2018-06-04T10:01:15.988Z,34.82
2018-06-04T10:03:44.956Z,35.06
2018-06-04T10:06:13.907Z,34.79
2018-06-04T10:08:42.885Z,34.93
2018-06-04T10:11:12.004Z,35.05
2018-06-04T10:13:40.934Z,35.30
2018-06-04T10:16:09.840Z,35.71
2018-06-04T10:18:38.770Z,35.24
2018-06-04T10:21:07.765Z,34.67
2018-06-04T10:23:36.708Z,35.05
2018-06-04T10:26:05.624Z,35.25
2018-06-04T10:28:34.571Z,35.52
2018-06-04T10:31:03.478Z,35.79
2018-06-04T10:33:32.433Z,35.31
2018-06-04T10:36:01.404Z,34.58
2018-06-04T10:38:30.360Z,34.95
2018-06-04T10:40:59.338Z,35.14
2018-06-04T10:43:28.341Z,34.80
2018-06-04T10:45:57.308Z,34.26
2018-06-04T10:48:26.292Z,33.78
2018-06-04T10:50:55.270Z,33.52
2018-06-04T10:53:24.217Z,32.90
2018-06-04T10:55:53.220Z,32.60
2018-06-04T10:58:22.245Z,32.42
2018-06-04T11:00:51.468Z,32.50
2018-06-04T11:03:20.444Z,33.09
2018-06-04T11:05:49.412Z,34.20
2018-06-04T11:08:18.400Z,34.20
2018-06-04T11:10:47.368Z,34.08
2018-06-04T11:13:16.331Z,34.59
2018-06-04T11:15:45.312Z,35.44
2018-06-04T11:18:14.310Z,35.21
2018-06-04T11:20:43.297Z,35.39
2018-06-04T11:23:12.267Z,35.91
2018-06-04T11:25:41.257Z,36.97
2018-06-04T11:28:10.225Z,37.38
2018-06-04T11:30:39.176Z,37.81
2018-06-04T11:33:08.139Z,38.12
2018-06-04T11:35:37.147Z,38.88
2018-06-04T11:38:06.116Z,38.45
2018-06-04T11:40:35.060Z,37.94
2018-06-04T11:43:04.139Z,37.39
2018-06-04T11:45:33.089Z,38.05
2018-06-04T11:48:02.090Z,38.65
2018-06-04T11:50:31.073Z,38.55
2018-06-04T11:53:00.056Z,39.04
2018-06-04T11:55:29.021Z,38.96
2018-06-04T11:57:57.987Z,38.37
2018-06-04T12:00:26.964Z,38.52
2018-06-04T12:02:55.900Z,38.73
2018-06-04T12:05:24.816Z,38.88
2018-06-04T12:07:53.717Z,38.74
2018-06-04T12:10:22.653Z,38.97
2018-06-04T12:12:51.615Z,38.98
2018-06-04T12:15:20.583Z,38.80
2018-06-04T12:17:49.539Z,38.45
2018-06-04T12:20:18.451Z,38.78
2018-06-04T12:22:47.416Z,37.90
2018-06-04T12:25:16.336Z,37.79
2018-06-04T12:27:45.272Z,38.77
2018-06-04T12:30:14.186Z,39.38
2018-06-04T12:32:43.107Z,40.10
2018-06-04T12:35:12.028Z,40.10
2018-06-04T12:37:41.058Z,40.19
2018-06-04T12:40:10.085Z,40.45
2018-06-04T12:42:39.012Z,40.92
2018-06-04T12:45:08.000Z,40.23
2018-06-04T12:47:36.974Z,41.08
2018-06-04T12:50:05.904Z,41.30
2018-06-04T12:52:34.866Z,41.09
2018-06-04T12:55:03.921Z,40.63
2018-06-04T12:57:32.909Z,40.47
2018-06-04T13:00:01.981Z,40.63
2018-06-04T13:02:30.905Z,39.15
2018-06-04T13:04:59.880Z,37.77
2018-06-04T13:07:28.791Z,36.82
2018-06-04T13:09:57.798Z,37.73
2018-06-04T13:12:26.741Z,38.26
2018-06-04T13:14:55.678Z,38.87
2018-06-04T13:17:24.697Z,39.28
2018-06-04T13:19:53.773Z,40.06
2018-06-04T13:22:22.796Z,40.23
2018-06-04T13:24:51.736Z,39.69
2018-06-04T13:27:20.737Z,40.18
2018-06-04T13:29:49.747Z,40.23
2018-06-04T13:32:18.704Z,40.35
2018-06-04T13:34:47.705Z,40.25
2018-06-04T13:37:16.976Z,40.29
2018-06-04T13:39:45.995Z,38.78
2018-06-04T13:42:14.932Z,37.59
2018-06-04T13:44:43.937Z,37.46
2018-06-04T13:47:12.928Z,37.25
2018-06-04T13:49:41.912Z,37.63
2018-06-04T13:52:10.928Z,37.30
2018-06-04T13:54:39.934Z,36.56
2018-06-04T13:57:08.888Z,35.75
2018-06-04T13:59:37.837Z,35.29
2018-06-04T14:02:07.014Z,35.09
2018-06-04T14:04:35.976Z,34.71
2018-06-04T14:07:05.041Z,34.30
2018-06-04T14:09:34.121Z,34.24
2018-06-04T14:12:03.072Z,34.04
2018-06-04T14:14:32.062Z,33.80
2018-06-04T14:17:01.031Z,33.76
2018-06-04T14:19:30.104Z,33.59
2018-06-04T14:21:59.052Z,33.51
2018-06-04T14:24:28.033Z,33.34
2018-06-04T14:26:57.082Z,33.43
2018-06-04T14:29:26.091Z,33.57
2018-06-04T14:31:55.109Z,33.57
2018-06-04T14:34:24.066Z,33.32
2018-06-04T14:36:53.116Z,33.09
2018-06-04T14:39:22.104Z,32.88
2018-06-04T14:41:51.063Z,32.39
2018-06-04T14:44:20.010Z,31.97
2018-06-04T14:46:48.960Z,31.42
2018-06-04T14:49:18.004Z,30.85
2018-06-04T14:51:46.944Z,30.30
2018-06-04T14:54:15.984Z,29.99
2018-06-04T14:56:44.986Z,29.56
2018-06-04T14:59:13.939Z,29.10
2018-06-04T15:01:43.016Z,28.65
2018-06-04T15:04:11.964Z,28.31
2018-06-04T15:06:41.027Z,28.07
2018-06-04T15:09:10.056Z,27.91
2018-06-04T15:11:39.061Z,27.71
2018-06-04T15:14:09.054Z,27.71
2018-06-04T15:16:38.165Z,27.62
2018-06-04T15:19:07.187Z,27.56
2018-06-04T15:21:36.152Z,27.47
2018-06-04T15:24:05.205Z,27.31
2018-06-04T15:26:34.254Z,26.99
2018-06-04T15:29:03.417Z,26.67
2018-06-04T15:31:32.396Z,26.29
2018-06-04T15:34:01.336Z,26.04
2018-06-04T15:36:30.340Z,25.97
2018-06-04T15:38:59.264Z,25.92
2018-06-04T15:41:28.272Z,25.70
2018-06-04T15:43:57.326Z,25.46
2018-06-04T15:46:26.409Z,25.27
2018-06-04T15:48:55.372Z,24.99
2018-06-04T15:51:24.496Z,24.82
2018-06-04T15:53:53.460Z,24.74
2018-06-04T15:56:22.465Z,24.63
2018-06-04T15:58:51.415Z,24.54
2018-06-04T16:01:20.427Z,24.48
2018-06-04T16:03:49.437Z,24.35
2018-06-04T16:06:18.471Z,24.26
2018-06-04T16:08:47.481Z,24.20
2018-06-04T16:11:16.533Z,24.08
2018-06-04T16:13:45.571Z,24.07
2018-06-04T16:16:14.644Z,24.03
2018-06-04T16:18:43.677Z,23.94
2018-06-04T16:21:12.640Z,24.05
2018-06-04T16:23:41.763Z,24.12
2018-06-04T16:26:10.788Z,24.16
2018-06-04T16:28:39.764Z,24.17
2018-06-04T16:31:08.944Z,24.29
2018-06-04T16:33:38.340Z,24.18
2018-06-04T16:36:07.356Z,24.13
2018-06-04T16:38:36.365Z,24.10
2018-06-04T16:41:05.444Z,24.08
2018-06-04T16:43:34.421Z,24.05
2018-06-04T16:46:03.372Z,24.05
2018-06-04T16:48:32.493Z,24.01
2018-06-04T16:51:01.440Z,24.05
2018-06-04T16:53:30.404Z,24.03
2018-06-04T16:55:59.432Z,23.97
2018-06-04T16:58:28.610Z,23.93
2018-06-04T17:00:57.632Z,23.94
2018-06-04T17:03:26.584Z,23.94
2018-06-04T17:05:55.544Z,23.99
2018-06-04T17:08:24.498Z,24.04
2018-06-04T17:10:53.652Z,24.10
2018-06-04T17:13:22.649Z,24.15
2018-06-04T17:15:51.737Z,24.13
2018-06-04T17:18:20.901Z,24.09
2018-06-04T17:20:49.871Z,24.02
2018-06-04T17:23:18.884Z,23.94
2018-06-04T17:25:47.905Z,23.90
2018-06-04T17:28:17.275Z,23.84
2018-06-04T17:30:46.244Z,23.78
2018-06-04T17:33:15.255Z,23.71
2018-06-04T17:35:44.216Z,23.65
2018-06-04T17:38:13.216Z,23.55
2018-06-04T17:40:42.176Z,23.43
2018-06-04T17:43:11.132Z,23.30
2018-06-04T17:45:40.094Z,23.21
2018-06-04T17:48:09.101Z,23.13
2018-06-04T17:50:38.112Z,23.03
2018-06-04T17:53:07.174Z,22.97
2018-06-04T17:55:36.151Z,22.90
2018-06-04T17:58:05.259Z,22.81
2018-06-04T18:00:34.209Z,22.76
2018-06-04T18:03:03.301Z,22.67
2018-06-04T18:05:32.297Z,22.60
2018-06-04T18:08:01.442Z,22.55
2018-06-04T18:10:30.414Z,22.51
2018-06-04T18:12:59.472Z,22.48
2018-06-04T18:15:28.509Z,22.48
2018-06-04T18:17:57.483Z,22.48
2018-06-04T18:20:26.505Z,22.45
2018-06-04T18:22:55.664Z,22.43
2018-06-04T18:25:24.746Z,22.38
2018-06-04T18:27:53.778Z,22.38
2018-06-04T18:30:23.500Z,22.35
2018-06-04T18:32:52.470Z,22.35
2018-06-04T18:35:21.404Z,22.37
2018-06-04T18:37:50.366Z,22.39
2018-06-04T18:40:19.372Z,22.39
2018-06-04T18:42:48.375Z,22.40
2018-06-04T18:45:17.321Z,22.42
2018-06-04T18:47:46.385Z,22.42
2018-06-04T18:50:15.397Z,22.39
2018-06-04T18:52:44.416Z,22.42
2018-06-04T18:55:13.373Z,22.41
2018-06-04T18:57:42.364Z,22.46
2018-06-04T19:00:11.424Z,22.45
2018-06-04T19:02:40.429Z,22.45
2018-06-04T19:05:09.380Z,22.40
2018-06-04T19:07:38.328Z,22.44
2018-06-04T19:10:07.287Z,22.43
2018-06-04T19:12:36.254Z,22.38
2018-06-04T19:15:05.909Z,22.32
2018-06-04T19:17:34.922Z,22.26
2018-06-04T19:20:03.872Z,22.12
2018-06-04T19:22:32.865Z,21.96
2018-06-04T19:25:01.886Z,21.85
2018-06-04T19:27:30.832Z,21.76
2018-06-04T19:29:59.847Z,21.70
2018-06-04T19:32:28.851Z,21.65
2018-06-04T19:34:57.917Z,21.57
2018-06-04T19:37:26.956Z,21.56
2018-06-04T19:39:55.959Z,21.53
2018-06-04T19:42:24.970Z,21.48
2018-06-04T19:44:53.965Z,21.49
2018-06-04T19:47:22.964Z,21.47
2018-06-04T19:49:51.961Z,21.47
2018-06-04T19:52:20.968Z,21.48
2018-06-04T19:54:49.919Z,21.51
2018-06-04T19:57:18.899Z,21.48
2018-06-04T19:59:47.861Z,21.47
2018-06-04T20:02:16.869Z,21.59
2018-06-04T20:04:45.875Z,21.58
2018-06-04T20:07:14.869Z,21.53
2018-06-04T20:09:43.996Z,21.53
2018-06-04T20:12:13.033Z,21.52
2018-06-04T20:14:41.995Z,21.49
2018-06-04T20:17:10.958Z,21.45
2018-06-04T20:19:39.956Z,21.35
2018-06-04T20:22:08.899Z,21.33
2018-06-04T20:24:37.831Z,21.32
2018-06-04T20:27:06.849Z,21.25
2018-06-04T20:29:35.858Z,21.19
2018-06-04T20:32:04.827Z,21.13
2018-06-04T20:34:33.955Z,21.06
2018-06-04T20:37:02.945Z,21.00
2018-06-04T20:39:31.986Z,20.96
2018-06-04T20:42:00.973Z,20.91
2018-06-04T20:44:29.971Z,20.89
2018-06-04T20:46:58.965Z,20.84
2018-06-04T20:49:27.897Z,20.83
2018-06-04T20:51:56.970Z,20.86
2018-06-04T20:54:25.977Z,20.78
2018-06-04T20:56:54.916Z,20.80
2018-06-04T20:59:23.851Z,20.77
2018-06-04T21:01:52.896Z,20.76
2018-06-04T21:04:21.877Z,20.79
2018-06-04T21:06:50.956Z,20.85
2018-06-04T21:09:19.908Z,20.88
2018-06-04T21:11:48.912Z,20.93
2018-06-04T21:14:17.925Z,20.99
2018-06-04T21:16:46.908Z,21.03
2018-06-04T21:19:15.908Z,21.06
2018-06-04T21:21:44.864Z,21.05
2018-06-04T21:24:13.860Z,21.08
2018-06-04T21:26:42.832Z,21.09
2018-06-04T21:29:11.771Z,21.11
2018-06-04T21:31:40.825Z,21.09
2018-06-04T21:34:09.836Z,21.09
2018-06-04T21:36:38.946Z,21.11
2018-06-04T21:39:08.045Z,21.11
2018-06-04T21:41:37.105Z,21.07
2018-06-04T21:44:06.116Z,21.04
2018-06-04T21:46:35.084Z,21.00
2018-06-04T21:49:04.119Z,21.00
2018-06-04T21:51:33.072Z,20.91
2018-06-04T21:54:02.055Z,20.85
2018-06-04T21:56:31.005Z,20.82
2018-06-04T21:59:00.003Z,20.73
2018-06-04T22:01:29.004Z,20.68
2018-06-04T22:03:58.120Z,20.66
2018-06-04T22:06:27.071Z,20.62
2018-06-04T22:08:56.129Z,20.59
2018-06-04T22:11:25.292Z,20.57
2018-06-04T22:13:54.293Z,20.56
2018-06-04T22:16:23.225Z,20.61
2018-06-04T22:18:52.292Z,20.61
2018-06-04T22:21:21.276Z,20.62
2018-06-04T22:23:50.277Z,20.61
2018-06-04T22:26:19.276Z,20.60
2018-06-04T22:28:48.365Z,20.61
2018-06-04T22:31:17.369Z,20.62
2018-06-04T22:33:46.331Z,20.62
2018-06-04T22:36:15.345Z,20.61
2018-06-04T22:38:44.296Z,20.60
2018-06-04T22:41:13.264Z,20.60
2018-06-04T22:43:42.191Z,20.63
2018-06-04T22:46:11.228Z,20.66
2018-06-04T22:48:40.345Z,20.69
2018-06-04T22:51:09.275Z,20.68
2018-06-04T22:53:38.215Z,20.65
2018-06-04T22:56:07.196Z,20.65
2018-06-04T22:58:36.208Z,20.60
2018-06-04T23:01:05.157Z,20.58
2018-06-04T23:03:34.253Z,20.56
2018-06-04T23:06:03.256Z,20.57
2018-06-04T23:08:32.249Z,20.60
2018-06-04T23:11:01.196Z,20.61
2018-06-04T23:13:30.133Z,20.60
2018-06-04T23:15:59.080Z,20.60
2018-06-04T23:18:28.133Z,20.62
2018-06-04T23:20:57.128Z,20.67
2018-06-04T23:23:26.113Z,20.65
2018-06-04T23:25:55.101Z,20.65
2018-06-04T23:28:24.144Z,20.69
2018-06-04T23:30:53.065Z,20.69
2018-06-04T23:33:22.117Z,20.71
2018-06-04T23:35:51.092Z,20.73
2018-06-04T23:38:20.084Z,20.74
2018-06-04T23:40:49.032Z,20.76
2018-06-04T23:43:17.968Z,20.75
2018-06-04T23:45:46.984Z,20.71
2018-06-04T23:48:15.980Z,20.74
2018-06-04T23:50:45.128Z,20.72
2018-06-04T23:53:14.056Z,20.71
2018-06-04T23:55:43.113Z,20.70
2018-06-04T23:58:12.137Z,20.66
